createdAt,value
2023-04-16T00:02:00.891Z,91.24
2023-04-16T00:04:27.385Z,91.56
2023-04-16T00:06:54.783Z,91.51
2023-04-16T00:09:21.318Z,91.16
2023-04-16T00:11:47.731Z,91.56
2023-04-16T00:14:14.116Z,91.71
2023-04-16T00:16:40.600Z,91.52
2023-04-16T00:19:07.257Z,91.76
2023-04-16T00:21:33.768Z,91.56
2023-04-16T00:24:00.284Z,92.06
2023-04-16T00:26:26.706Z,92.14
2023-04-16T00:28:53.050Z,92.26
2023-04-16T00:31:26.918Z,91.61
2023-04-16T00:33:53.387Z,91.85
2023-04-16T00:36:19.758Z,92.33
2023-04-16T00:38:46.163Z,91.99
2023-04-16T00:41:12.553Z,92.20
2023-04-16T00:43:38.980Z,92.36
2023-04-16T00:46:07.116Z,92.14
2023-04-16T00:48:34.945Z,92.49
2023-04-16T00:51:01.832Z,92.84
2023-04-16T00:53:28.887Z,92.50
2023-04-16T00:55:56.143Z,92.71
2023-04-16T00:58:23.579Z,92.85
2023-04-16T01:00:51.660Z,92.54
2023-04-16T01:03:18.137Z,92.25
2023-04-16T01:05:45.992Z,92.68
2023-04-16T01:08:20.450Z,92.71
2023-04-16T01:10:46.947Z,92.87
2023-04-16T01:13:13.569Z,92.43
2023-04-16T01:15:40.039Z,93.02
2023-04-16T01:18:21.284Z,93.17
2023-04-16T01:20:48.841Z,92.53
2023-04-16T01:23:15.964Z,92.89
2023-04-16T01:25:42.324Z,92.84
2023-04-16T01:28:08.694Z,92.30
2023-04-16T01:30:35.110Z,92.96
2023-04-16T01:33:01.560Z,92.63
2023-04-16T01:35:28.238Z,93.10
2023-04-16T01:37:54.883Z,92.95
2023-04-16T01:40:21.364Z,92.75
2023-04-16T01:42:47.894Z,93.04
2023-04-16T01:45:14.368Z,93.16
2023-04-16T01:47:40.843Z,93.18
2023-04-16T01:50:07.801Z,92.65
2023-04-16T01:52:34.287Z,93.08
2023-04-16T01:55:00.758Z,93.01
2023-04-16T01:57:27.122Z,93.05
2023-04-16T01:59:53.504Z,93.13
2023-04-16T02:02:20.099Z,93.04
2023-04-16T02:04:46.576Z,92.89
2023-04-16T02:07:12.956Z,93.15
2023-04-16T02:09:40.928Z,92.83
2023-04-16T02:12:07.883Z,93.20
2023-04-16T02:14:34.283Z,93.10
2023-04-16T02:17:00.835Z,93.28
2023-04-16T02:19:27.326Z,92.53
2023-04-16T02:21:54.822Z,92.84
2023-04-16T02:24:21.631Z,93.03
2023-04-16T02:26:48.296Z,92.78
2023-04-16T02:29:16.392Z,92.87
2023-04-16T02:31:43.063Z,93.19
2023-04-16T02:34:09.463Z,93.23
2023-04-16T02:36:35.997Z,93.15
2023-04-16T02:39:02.536Z,92.71
2023-04-16T02:41:28.969Z,92.86
2023-04-16T02:43:55.354Z,93.37
2023-04-16T02:46:22.025Z,93.13
2023-04-16T02:48:48.483Z,93.15
2023-04-16T02:51:14.894Z,92.79
2023-04-16T02:53:45.468Z,93.31
2023-04-16T02:56:12.868Z,93.39
2023-04-16T02:58:39.268Z,92.94
2023-04-16T03:01:05.761Z,93.19
2023-04-16T03:03:32.182Z,92.93
2023-04-16T03:05:58.589Z,93.28
2023-04-16T03:08:25.162Z,93.18
2023-04-16T03:10:51.615Z,92.99
2023-04-16T03:13:18.061Z,93.22
2023-04-16T03:15:49.606Z,93.14
2023-04-16T03:18:16.410Z,93.10
2023-04-16T03:20:42.822Z,92.86
2023-04-16T03:23:09.297Z,93.00
2023-04-16T03:25:36.573Z,92.57
2023-04-16T03:28:03.793Z,93.17
2023-04-16T03:30:30.315Z,92.96
2023-04-16T03:32:56.724Z,93.08
2023-04-16T03:35:23.128Z,92.92
2023-04-16T03:37:50.277Z,93.19
2023-04-16T03:40:16.787Z,93.19
2023-04-16T03:42:43.175Z,93.35
2023-04-16T03:45:09.848Z,93.28
2023-04-16T03:47:36.231Z,93.29
2023-04-16T03:50:02.766Z,93.87
2023-04-16T03:52:29.238Z,93.23
2023-04-16T03:54:55.787Z,93.70
2023-04-16T03:57:22.147Z,93.52
2023-04-16T03:59:48.508Z,93.75
2023-04-16T04:02:14.965Z,93.24
2023-04-16T04:04:41.467Z,93.46
2023-04-16T04:07:07.998Z,93.00
2023-04-16T04:09:34.385Z,93.11
2023-04-16T04:12:00.928Z,93.14
2023-04-16T04:14:27.362Z,93.38
2023-04-16T04:16:54.260Z,93.23
2023-04-16T04:19:20.780Z,93.65
2023-04-16T04:21:47.162Z,93.57
2023-04-16T04:24:13.582Z,93.64
2023-04-16T04:26:39.972Z,93.70
2023-04-16T04:29:06.564Z,93.26
2023-04-16T04:31:32.994Z,93.35
2023-04-16T04:33:59.383Z,92.90
2023-04-16T04:36:27.143Z,93.24
2023-04-16T04:38:53.516Z,93.25
2023-04-16T04:41:20.052Z,93.49
2023-04-16T04:43:46.392Z,93.05
2023-04-16T04:46:12.857Z,93.73
2023-04-16T04:48:39.217Z,93.27
2023-04-16T04:51:05.854Z,93.37
2023-04-16T04:53:32.227Z,93.51
2023-04-16T04:56:05.431Z,93.76
2023-04-16T04:58:38.370Z,93.48
2023-04-16T05:01:05.113Z,93.56
2023-04-16T05:03:31.693Z,93.69
2023-04-16T05:05:58.124Z,93.45
2023-04-16T05:08:24.483Z,93.78
2023-04-16T05:10:51.089Z,93.77
2023-04-16T05:13:17.469Z,93.52
2023-04-16T05:15:45.029Z,93.66
2023-04-16T05:18:11.448Z,93.49
2023-04-16T05:20:37.962Z,93.59
2023-04-16T05:23:04.401Z,93.76
2023-04-16T05:25:30.962Z,93.30
2023-04-16T05:27:57.386Z,93.72
2023-04-16T05:30:23.786Z,93.23
2023-04-16T05:32:50.341Z,93.52
2023-04-16T05:35:17.613Z,93.38
2023-04-16T05:37:44.329Z,93.82
2023-04-16T05:40:13.760Z,93.37
2023-04-16T05:42:40.187Z,93.69
2023-04-16T05:45:07.066Z,93.52
2023-04-16T05:47:33.466Z,93.97
2023-04-16T05:49:59.848Z,93.65
2023-04-16T05:52:26.262Z,93.70
2023-04-16T05:54:52.643Z,93.52
2023-04-16T05:57:18.996Z,94.00
2023-04-16T05:59:45.554Z,93.65
2023-04-16T06:02:12.403Z,93.93
2023-04-16T06:04:38.847Z,93.84
2023-04-16T06:07:05.548Z,93.70
2023-04-16T06:09:31.898Z,93.90
2023-04-16T06:11:58.300Z,93.92
2023-04-16T06:14:24.740Z,93.95
2023-04-16T06:16:51.203Z,93.79
2023-04-16T06:19:17.577Z,93.57
2023-04-16T06:21:44.075Z,93.74
2023-04-16T06:24:10.565Z,93.77
2023-04-16T06:26:36.995Z,93.63
2023-04-16T06:29:03.353Z,93.63
2023-04-16T06:31:30.366Z,93.37
2023-04-16T06:33:57.010Z,93.61
2023-04-16T06:36:23.542Z,93.76
2023-04-16T06:38:49.912Z,93.46
2023-04-16T06:41:16.322Z,93.80
2023-04-16T06:43:42.712Z,93.97
2023-04-16T06:46:09.122Z,93.85
2023-04-16T06:48:35.687Z,93.71
2023-04-16T06:51:02.254Z,93.53
2023-04-16T06:53:28.657Z,93.96
2023-04-16T06:55:55.562Z,94.05
2023-04-16T06:58:22.499Z,93.53
2023-04-16T07:00:48.908Z,93.86
2023-04-16T07:03:15.538Z,93.95
2023-04-16T07:05:42.034Z,93.53
2023-04-16T07:08:08.490Z,94.01
2023-04-16T07:10:34.983Z,93.79
2023-04-16T07:13:01.668Z,94.25
2023-04-16T07:15:29.002Z,93.39
2023-04-16T07:17:55.629Z,93.94
2023-04-16T07:20:22.118Z,94.00
2023-04-16T07:22:48.574Z,93.93
2023-04-16T07:25:14.930Z,93.92
2023-04-16T07:27:41.310Z,93.84
2023-04-16T07:30:08.150Z,93.54
2023-04-16T07:32:35.041Z,94.04
2023-04-16T07:35:01.632Z,93.87
2023-04-16T07:37:27.989Z,94.15
2023-04-16T07:39:57.497Z,93.77
2023-04-16T07:42:23.962Z,93.92
2023-04-16T07:44:50.415Z,93.64
2023-04-16T07:47:16.814Z,94.02
2023-04-16T07:49:43.303Z,93.84
2023-04-16T07:52:09.681Z,93.71
2023-04-16T07:54:36.243Z,94.07
2023-04-16T07:57:02.685Z,93.39
2023-04-16T07:59:29.543Z,93.89
2023-04-16T08:01:56.437Z,93.71
2023-04-16T08:04:25.473Z,93.82
2023-04-16T08:06:53.045Z,93.36
2023-04-16T08:09:21.597Z,93.38
2023-04-16T08:11:49.881Z,93.67
2023-04-16T08:14:17.057Z,93.63
2023-04-16T08:16:43.405Z,93.30
2023-04-16T08:19:10.168Z,92.62
2023-04-16T08:21:36.865Z,93.30
2023-04-16T08:24:03.316Z,93.00
2023-04-16T08:26:29.690Z,93.45
2023-04-16T08:28:56.035Z,92.85
2023-04-16T08:31:22.529Z,92.93
2023-04-16T08:33:48.938Z,93.21
2023-04-16T08:36:15.329Z,93.07
2023-04-16T08:38:43.499Z,92.77
2023-04-16T08:41:12.430Z,92.99
2023-04-16T08:43:44.410Z,92.81
2023-04-16T08:46:12.516Z,92.82
2023-04-16T08:48:42.041Z,92.68
2023-04-16T08:51:10.660Z,92.51
2023-04-16T08:53:48.278Z,92.17
2023-04-16T08:56:15.750Z,92.40
2023-04-16T08:58:42.309Z,92.37
2023-04-16T09:01:13.557Z,92.39
2023-04-16T09:03:50.004Z,91.99
2023-04-16T09:06:17.199Z,91.98
2023-04-16T09:08:48.417Z,91.62
2023-04-16T09:11:17.956Z,92.05
2023-04-16T09:13:45.984Z,92.04
2023-04-16T09:16:13.459Z,91.89
2023-04-16T09:18:40.353Z,91.64
2023-04-16T09:21:09.956Z,92.24
2023-04-16T09:23:37.483Z,91.52
2023-04-16T09:26:04.847Z,91.40
2023-04-16T09:28:48.694Z,91.59
2023-04-16T09:31:17.123Z,91.69
2023-04-16T09:33:44.563Z,91.33
2023-04-16T09:36:11.165Z,91.51
2023-04-16T09:38:53.683Z,91.53
2023-04-16T09:41:27.516Z,91.28
2023-04-16T09:43:57.991Z,91.62
2023-04-16T09:46:31.713Z,91.28
2023-04-16T09:48:58.311Z,91.34
2023-04-16T09:51:26.928Z,91.09
2023-04-16T09:53:54.866Z,91.12
2023-04-16T09:56:26.123Z,91.10
2023-04-16T09:58:58.169Z,91.32
2023-04-16T10:01:24.977Z,90.97
2023-04-16T10:03:54.634Z,90.99
2023-04-16T10:06:23.104Z,90.82
2023-04-16T10:08:52.898Z,91.02
2023-04-16T10:11:20.532Z,91.39
2023-04-16T10:13:47.140Z,90.86
2023-04-16T10:16:13.639Z,90.42
2023-04-16T10:18:42.538Z,91.32
2023-04-16T10:21:11.931Z,90.48
2023-04-16T10:23:39.811Z,90.83
2023-04-16T10:26:06.737Z,90.91
2023-04-16T10:28:35.398Z,91.02
2023-04-16T10:31:09.038Z,90.47
2023-04-16T10:33:39.292Z,90.74
2023-04-16T10:36:13.617Z,90.76
2023-04-16T10:38:56.584Z,90.83
2023-04-16T10:41:22.965Z,90.48
2023-04-16T10:43:51.528Z,90.15
2023-04-16T10:46:23.641Z,90.25
2023-04-16T10:48:53.322Z,90.17
2023-04-16T10:51:26.204Z,90.48
2023-04-16T10:53:54.501Z,90.15
2023-04-16T10:56:26.324Z,90.57
2023-04-16T10:58:54.091Z,90.04
2023-04-16T11:01:31.364Z,89.98
2023-04-16T11:04:02.220Z,90.48
2023-04-16T11:06:29.565Z,90.07
2023-04-16T11:08:56.164Z,90.25
2023-04-16T11:11:23.278Z,90.09
2023-04-16T11:13:50.038Z,89.72
2023-04-16T11:16:17.104Z,90.37
2023-04-16T11:18:51.276Z,90.31
2023-04-16T11:21:18.414Z,90.09
2023-04-16T11:23:50.162Z,89.84
2023-04-16T11:26:27.842Z,90.00
2023-04-16T11:28:56.696Z,89.96
2023-04-16T11:31:24.022Z,89.55
2023-04-16T11:33:50.868Z,89.81
2023-04-16T11:36:17.461Z,89.37
2023-04-16T11:38:43.936Z,89.70
2023-04-16T11:41:11.104Z,89.82
2023-04-16T11:43:37.680Z,89.76
2023-04-16T11:46:19.980Z,89.63
2023-04-16T11:48:55.483Z,89.63
2023-04-16T11:51:23.540Z,89.66
2023-04-16T11:53:54.100Z,89.63
2023-04-16T11:56:31.456Z,89.37
2023-04-16T11:59:15.724Z,89.69
2023-04-16T12:01:45.871Z,89.49
2023-04-16T12:04:14.249Z,89.47
2023-04-16T12:06:40.885Z,89.38
2023-04-16T12:09:27.278Z,89.56
2023-04-16T12:11:54.017Z,89.37
2023-04-16T12:14:20.445Z,89.37
2023-04-16T12:16:46.989Z,89.26
2023-04-16T12:19:14.023Z,88.79
2023-04-16T12:21:45.755Z,89.01
2023-04-16T12:24:14.806Z,88.92
2023-04-16T12:26:46.543Z,88.99
2023-04-16T12:29:23.250Z,88.73
2023-04-16T12:31:51.149Z,89.24
2023-04-16T12:34:18.857Z,89.15
2023-04-16T12:36:46.323Z,88.67
2023-04-16T12:39:14.485Z,88.92
2023-04-16T12:41:42.842Z,89.00
2023-04-16T12:44:17.825Z,88.84
2023-04-16T12:46:44.795Z,88.71
2023-04-16T12:49:11.675Z,88.54
2023-04-16T12:51:39.137Z,88.88
2023-04-16T12:54:09.886Z,88.86
2023-04-16T12:56:36.515Z,88.76
2023-04-16T12:59:03.428Z,88.64
2023-04-16T13:01:29.910Z,88.46
2023-04-16T13:03:56.620Z,88.08
2023-04-16T13:06:23.345Z,88.42
2023-04-16T13:08:49.712Z,88.42
2023-04-16T13:11:16.489Z,88.05
2023-04-16T13:13:42.895Z,88.25
2023-04-16T13:16:09.432Z,88.10
2023-04-16T13:18:40.108Z,88.23
2023-04-16T13:21:06.665Z,88.04
2023-04-16T13:23:33.067Z,87.72
2023-04-16T13:25:59.466Z,88.16
2023-04-16T13:28:25.947Z,87.96
2023-04-16T13:30:53.044Z,87.91
2023-04-16T13:33:20.699Z,88.03
2023-04-16T13:35:49.081Z,88.11
2023-04-16T13:38:15.872Z,88.07
2023-04-16T13:40:44.663Z,87.73
2023-04-16T13:43:13.803Z,87.44
2023-04-16T13:46:02.008Z,87.70
2023-04-16T13:48:29.301Z,87.40
2023-04-16T13:50:56.174Z,87.85
2023-04-16T13:53:24.623Z,87.72
2023-04-16T13:56:15.258Z,87.47
2023-04-16T13:58:41.853Z,87.02
2023-04-16T14:01:09.814Z,87.08
2023-04-16T14:03:38.450Z,87.14
2023-04-16T14:06:05.549Z,86.92
2023-04-16T14:08:32.028Z,87.24
2023-04-16T14:10:58.794Z,87.38
2023-04-16T14:13:25.470Z,87.30
2023-04-16T14:15:54.922Z,87.31
2023-04-16T14:18:21.348Z,87.16
2023-04-16T14:20:48.198Z,87.22
2023-04-16T14:23:14.593Z,87.00
2023-04-16T14:25:40.960Z,86.70
2023-04-16T14:28:08.903Z,86.27
2023-04-16T14:30:35.362Z,86.54
2023-04-16T14:33:02.668Z,86.38
2023-04-16T14:35:29.143Z,86.34
2023-04-16T14:37:56.050Z,85.98
2023-04-16T14:40:22.492Z,85.91
2023-04-16T14:42:48.872Z,85.81
2023-04-16T14:45:16.013Z,85.67
2023-04-16T14:47:47.982Z,85.59
2023-04-16T14:50:15.611Z,85.81
2023-04-16T14:52:42.356Z,85.96
2023-04-16T14:55:08.882Z,85.18
2023-04-16T14:57:35.315Z,85.86
2023-04-16T15:00:02.140Z,85.80
2023-04-16T15:02:28.962Z,85.43
2023-04-16T15:04:55.606Z,85.58
2023-04-16T15:07:22.203Z,85.71
2023-04-16T15:09:48.557Z,85.91
2023-04-16T15:12:15.511Z,85.59
2023-04-16T15:14:43.366Z,85.55
2023-04-16T15:17:10.047Z,85.83
2023-04-16T15:19:36.714Z,85.43
2023-04-16T15:22:03.151Z,85.04
2023-04-16T15:24:29.595Z,84.72
2023-04-16T15:26:56.169Z,84.94
2023-04-16T15:29:22.548Z,84.51
2023-04-16T15:31:48.936Z,84.91
2023-04-16T15:34:15.410Z,84.16
2023-04-16T15:36:42.049Z,84.46
2023-04-16T15:39:09.740Z,84.54
2023-04-16T15:41:47.004Z,84.41
2023-04-16T15:44:23.828Z,84.33
2023-04-16T15:46:50.325Z,84.36
2023-04-16T15:49:16.788Z,85.01
2023-04-16T15:51:43.253Z,84.55
2023-04-16T15:54:09.766Z,84.52
2023-04-16T15:56:36.207Z,84.71
2023-04-16T15:59:03.785Z,84.71
2023-04-16T16:01:31.082Z,84.58
2023-04-16T16:03:57.782Z,84.50
2023-04-16T16:06:24.614Z,84.82
2023-04-16T16:08:51.144Z,84.66
2023-04-16T16:11:17.612Z,84.27
2023-04-16T16:13:44.093Z,84.94
2023-04-16T16:16:10.708Z,85.16
2023-04-16T16:18:37.377Z,84.58
2023-04-16T16:21:03.948Z,85.10
2023-04-16T16:23:30.413Z,84.94
2023-04-16T16:25:56.904Z,84.98
2023-04-16T16:28:25.030Z,84.90
2023-04-16T16:30:53.768Z,85.44
2023-04-16T16:33:20.737Z,85.48
2023-04-16T16:35:47.278Z,85.44
2023-04-16T16:38:13.743Z,85.81
2023-04-16T16:40:40.212Z,86.06
2023-04-16T16:43:06.618Z,85.94
2023-04-16T16:45:33.004Z,85.77
2023-04-16T16:47:59.401Z,85.70
2023-04-16T16:50:26.112Z,85.87
2023-04-16T16:52:52.501Z,85.96
2023-04-16T16:55:20.191Z,85.63
2023-04-16T16:57:46.592Z,85.87
2023-04-16T17:00:14.245Z,86.25
2023-04-16T17:02:41.230Z,86.28
2023-04-16T17:05:08.257Z,86.24
2023-04-16T17:07:34.652Z,86.21
2023-04-16T17:10:03.814Z,86.63
2023-04-16T17:12:31.828Z,86.41
2023-04-16T17:14:58.300Z,86.86
2023-04-16T17:17:25.133Z,86.71
2023-04-16T17:19:51.595Z,86.93
2023-04-16T17:22:18.260Z,86.96
2023-04-16T17:24:44.622Z,87.07
2023-04-16T17:27:11.160Z,86.99
2023-04-16T17:29:37.521Z,87.05
2023-04-16T17:32:04.289Z,87.55
2023-04-16T17:34:30.781Z,87.55
2023-04-16T17:36:57.176Z,87.14
2023-04-16T17:39:23.594Z,87.76
2023-04-16T17:41:54.205Z,87.44
2023-04-16T17:44:20.906Z,87.71
2023-04-16T17:46:47.293Z,87.32
2023-04-16T17:49:13.660Z,88.17
2023-04-16T17:51:41.017Z,88.21
2023-04-16T17:54:07.430Z,88.36
2023-04-16T17:56:33.839Z,88.02
2023-04-16T17:59:00.678Z,87.80
2023-04-16T18:01:27.522Z,88.10
2023-04-16T18:03:54.337Z,88.12
2023-04-16T18:06:20.985Z,88.53
2023-04-16T18:08:47.330Z,88.46
2023-04-16T18:11:13.714Z,88.93
2023-04-16T18:13:40.480Z,88.89
2023-04-16T18:16:13.398Z,88.69
2023-04-16T18:18:39.810Z,88.99
2023-04-16T18:21:06.186Z,88.51
2023-04-16T18:23:32.641Z,88.99
2023-04-16T18:25:59.012Z,89.17
2023-04-16T18:28:26.795Z,89.41
2023-04-16T18:30:53.425Z,89.55
2023-04-16T18:33:44.464Z,88.98
2023-04-16T18:36:06.630Z,89.29
2023-04-16T18:38:33.112Z,89.41
2023-04-16T18:40:59.605Z,89.98
2023-04-16T18:43:26.135Z,89.65
2023-04-16T18:45:52.582Z,89.57
2023-04-16T18:48:19.001Z,89.41
2023-04-16T18:50:45.573Z,89.40
2023-04-16T18:53:12.045Z,89.37
2023-04-16T18:55:38.400Z,89.54
2023-04-16T18:58:04.851Z,89.75
2023-04-16T19:00:31.620Z,89.50
2023-04-16T19:02:58.025Z,89.87
2023-04-16T19:05:24.461Z,90.32
2023-04-16T19:07:50.903Z,90.19
2023-04-16T19:10:17.464Z,89.96
2023-04-16T19:12:43.878Z,90.31
2023-04-16T19:15:10.907Z,90.28
2023-04-16T19:17:37.288Z,89.93
2023-04-16T19:20:08.390Z,90.15
2023-04-16T19:22:34.765Z,90.25
2023-04-16T19:25:01.922Z,90.06
2023-04-16T19:27:31.694Z,89.90
2023-04-16T19:29:58.117Z,90.05
2023-04-16T19:32:24.599Z,89.64
2023-04-16T19:34:51.001Z,89.90
2023-04-16T19:37:17.451Z,89.68
2023-04-16T19:39:43.850Z,90.13
2023-04-16T19:42:10.315Z,89.98
2023-04-16T19:44:36.757Z,89.97
2023-04-16T19:47:03.221Z,90.09
2023-04-16T19:49:29.649Z,89.96
2023-04-16T19:51:56.005Z,89.79
2023-04-16T19:54:22.351Z,90.24
2023-04-16T19:56:51.663Z,89.77
2023-04-16T19:59:18.084Z,90.17
2023-04-16T20:01:44.679Z,90.32
2023-04-16T20:04:11.520Z,89.71
2023-04-16T20:06:37.978Z,90.00
2023-04-16T20:09:04.919Z,90.55
2023-04-16T20:11:31.317Z,90.45
2023-04-16T20:14:00.291Z,90.50
2023-04-16T20:16:26.853Z,90.72
2023-04-16T20:18:54.369Z,90.28
2023-04-16T20:21:25.124Z,89.84
2023-04-16T20:23:51.491Z,90.35
2023-04-16T20:26:19.254Z,90.47
2023-04-16T20:28:45.897Z,90.54
2023-04-16T20:31:12.912Z,90.50
2023-04-16T20:33:39.402Z,90.23
2023-04-16T20:36:06.727Z,90.33
2023-04-16T20:38:34.296Z,90.35
2023-04-16T20:41:10.571Z,90.46
2023-04-16T20:43:42.002Z,90.86
2023-04-16T20:46:08.999Z,90.30
2023-04-16T20:48:35.529Z,90.25
2023-04-16T20:51:03.727Z,90.66
2023-04-16T20:53:33.777Z,90.43
2023-04-16T20:56:00.548Z,90.33
2023-04-16T20:58:29.780Z,90.74
2023-04-16T21:00:57.539Z,90.26
2023-04-16T21:03:24.663Z,90.39
2023-04-16T21:05:55.809Z,90.79
2023-04-16T21:08:23.555Z,90.83
2023-04-16T21:10:50.887Z,90.30
2023-04-16T21:13:17.271Z,90.68
2023-04-16T21:15:44.753Z,90.56
2023-04-16T21:18:11.513Z,90.70
2023-04-16T21:20:38.852Z,90.70
2023-04-16T21:23:06.039Z,91.19
2023-04-16T21:25:33.500Z,90.25
2023-04-16T21:27:59.933Z,90.84
2023-04-16T21:30:26.450Z,90.72
2023-04-16T21:32:52.903Z,90.98
2023-04-16T21:35:19.436Z,90.74
2023-04-16T21:37:45.822Z,90.66
2023-04-16T21:40:12.371Z,90.69
2023-04-16T21:42:42.393Z,90.93
2023-04-16T21:45:10.141Z,90.81
2023-04-16T21:47:37.176Z,91.37
2023-04-16T21:50:04.004Z,91.21
2023-04-16T21:52:30.543Z,91.25
2023-04-16T21:54:56.901Z,91.21
2023-04-16T21:57:23.451Z,90.76
2023-04-16T21:59:49.860Z,90.65
2023-04-16T22:02:16.432Z,90.94
2023-04-16T22:04:43.603Z,91.07
2023-04-16T22:07:10.057Z,91.06
2023-04-16T22:09:36.543Z,90.91
2023-04-16T22:12:03.111Z,91.35
2023-04-16T22:14:30.174Z,91.19
2023-04-16T22:16:56.639Z,91.37
2023-04-16T22:19:23.083Z,91.47
2023-04-16T22:21:49.489Z,91.45
2023-04-16T22:24:15.863Z,91.54
2023-04-16T22:26:42.428Z,91.60
2023-04-16T22:29:08.847Z,91.46
2023-04-16T22:31:35.447Z,91.47
2023-04-16T22:34:03.444Z,91.27
2023-04-16T22:36:30.913Z,91.89
2023-04-16T22:38:57.305Z,91.75
2023-04-16T22:41:23.837Z,91.68
2023-04-16T22:43:52.485Z,91.60
2023-04-16T22:46:22.357Z,91.34
2023-04-16T22:48:48.815Z,91.45
2023-04-16T22:51:15.280Z,91.58
2023-04-16T22:53:41.804Z,92.08
2023-04-16T22:56:08.253Z,91.69
2023-04-16T22:58:34.651Z,91.92
2023-04-16T23:01:01.692Z,91.34
2023-04-16T23:03:28.256Z,91.51
2023-04-16T23:05:54.803Z,91.64
2023-04-16T23:08:21.174Z,91.67
2023-04-16T23:10:47.542Z,91.54
2023-04-16T23:13:13.911Z,91.46
2023-04-16T23:15:40.479Z,91.42
2023-04-16T23:18:06.953Z,91.56
2023-04-16T23:20:33.383Z,91.85
2023-04-16T23:22:59.735Z,91.44
2023-04-16T23:25:26.221Z,91.90
2023-04-16T23:27:52.570Z,91.97
2023-04-16T23:30:19.028Z,91.92
2023-04-16T23:32:45.502Z,92.19
2023-04-16T23:35:11.917Z,91.60
2023-04-16T23:37:38.265Z,92.25
2023-04-16T23:40:05.262Z,92.17
2023-04-16T23:42:31.642Z,92.34
2023-04-16T23:44:58.116Z,91.48
2023-04-16T23:47:24.509Z,91.34
2023-04-16T23:49:50.996Z,92.00
2023-04-16T23:52:17.442Z,91.73
2023-04-16T23:54:43.850Z,91.78
2023-04-16T23:57:10.345Z,91.49
2023-04-16T23:59:36.682Z,91.83
